Metar z połowy godziny Komunikat METAR ze strony awiacja.imgw.pl Metar Mil EPMI METAR EPMI 261130Z 29012KT 7000 OVC007 00/00 Q1008 RMK 003 100 8/8=